Aérodrome :
LOGIN :

S'inscrire | Disclaimer

   EN    FR    IT 

 










Légende :    VFR   VFR Marginal   IFR   IFR Intensif   IFR Très Intensif
Visi : 
Plafond : 
>= 8 km
>= 3000ft
5 à 8 km
1000 à 3000 ft
1500m à 5 km
500 à 1000 ft
800 à 1500m
200 à 500 ft
< 800m
< 200 ft
Symboles :   Orages  Brouillard  Fortes neiges  Fortes précipitations  Vent > 20 kt
SIGMETs :   Divers  Orages  Givrage  Turbulence  Onde Orograph.  Cendres Volcan.






- Altitude de l'aérodrome : 410 ft
- Code IATA : AVB


LIPA - Aviano AB Pordenone

DERNIER METAR :
  • 281155Z 04001KT 6000 -RA FEW010 SCT015 BKN030 08/06 Q1006 RMK OVC VIS MIN 4000NE WIND THR05 /////KT WIND THR23 /////KT A2972 GRN

METARs EXPIRÉS :
  • 281055Z 02005KT 7000 -RA SCT015 BKN030 07/05 Q1007 RMK OVC VIS MIN 4000NE WIND THR05 /////KT WIND THR23 /////KT A2975 GRN
  • 281025Z 01004KT 6000 -RA FEW010 SCT015 BKN030 07/05 Q1007 RMK OVC VIS MIN 4000NE WIND THR05 /////KT WIND THR23 /////KT A2976 GRN
  • 280955Z 05005KT 8000 -RA FEW015 SCT020 BKN030 07/05 Q1007 RMK OVC VIS MIN 6000NE WIND THR05 /////KT WIND THR23 /////KT A2977 WHT

TAF TAF LIPA
Valide du 28 à 12h jusqu'au 28 à 21h UTC


281100Z 2812/2821 05006KT 8000 SCT015 BKN025
TEMPO 2812/2821 2000 RA BR



MET'MAP, la Météo Aéronautique d'un coup d'oeil ! - Copyright ORBIFLY Décembre 2007 - Disclaimer

ORBIFLY MET'MAP TEAM :

Programmation & Développement : Alexandra Zaïnal
Sur une idée originale de : Baudouin d'Aumeries
Assistance à la programmation : Marc-Olivier Méhu
Soutien technique & logistique : Manuel Goepfert

Contact : metmap@orbifly.com




SOURCES & CREDITS :

   NOAA